Pagrindinis puslapis
METAR-TAF:

METAR-TAF

Oro uostai :

Oro pajėgų bazė

Linšiopingas, Švedija

platuma: 58-24N, ilguma: 015-31E, Aukštis: 93 m

Dabartinis oras

Ataskaita buvo paskelbta 36 minutes, ne 10:20 UTC
Vėjas 18 kt iš Pietvakarių su gūsio iki 30 kt
Temperatūra 6°C
Drėgmė 81%
Slėgis 997 hPa
Matomumas 10 km arba daugiau
Išsisklaidę debesys ne aukštis 2200 ft

METAR: ESCF 181020Z 23018G30KT 9999 SCT022 06/03 Q0997

Laikas: 11:56 (10:56 UTC)

Prognozė

Ataskaita buvo paskelbta 1 valandą ir 26 minutes, ne 09:30 UTC
Prognozė galioja nuo 18 metu 09 UTC su 18 metu 16 UTC
Vėjas 18 kt iš Vakarų/Pietvakarių su gūsio iki 27 kt
Matomumas 10 km arba daugiau
Su prošvaistėmis ne aukštis 2500 ft
Laikinai
nuo 18 metu 09 UTC su 18 metu 16 UTC
Vėjas 26 kt iš Vakarų/Pietvakarių su gūsio iki 33 kt
Matomumas 10 km arba daugiau
Su prošvaistėmis ne aukštis 2000 ft, aukštai iškilę kamuoliniai debesys.
lietus

TAF: ESCF 180930Z 1809/1816 24018G27KT 9999 BKN025 TEMPO 1809/1816 24026G33KT 9999 -SHRA BKN020TCU RMK MIL

Orai ataskaitas ir orų prognozės (METAR, TAF).

turimą stotys yra geltonos ir raudonos taškus žemėlapyje.

Perkelti pele per norėdami pamatyti stoties vardą.

Tada spustelėkite, norėdami matyti oro stebėjimo ir prognozės.

Norėdami pakeisti žemėlapį: spustelėkite ant žalios mygtukų su juodo kryžiaus žemyn,; žalią mygtuką su brūkšneliu, jei norite nutolinti; arba žalių rodyklių gretimoms žemėlapius.


METAR-TAF: